DAN133 EGKK-LOWI
Flight info
| Callsign | DAN133 |
|---|---|
| Flight time | 1h 38m |
| Altitude | 23000 |
| Route | DVR L9 KONAN/N0459F330 DCT KOK UL607 FERDI DCT REMBA DCT LIRSU DCT KRH DCT TEDGO DCT BATUB/N0464F310 M738 MADEB MADEB1B |
| Aircraft | B722/M-SDFGHRWY/C |
Departure
| Time | 2026-05-07 17:52 |
|---|---|
| Airport | London Gatwick Airport (EGKK) |
Arrival
| Time | 2026-05-07 19:30 |
|---|---|
| Airport | Innsbruck Airport (LOWI) |
| Time | Latitude | Longitude | Altitude | Speed | Heading |
|---|---|---|---|---|---|
| 2026-05-07 17:18 | 51.15363 | -0.17494 | 207 ft | 0 kts | 348° |
| 2026-05-07 17:39 | 51.15357 | -0.17492 | 207 ft | 4 kts | 347° |
| 2026-05-07 17:39 | 51.15331 | -0.17481 | 207 ft | 4 kts | 345° |
| 2026-05-07 17:39 | 51.15310 | -0.17468 | 207 ft | 4 kts | 324° |
| 2026-05-07 17:39 | 51.15300 | -0.17441 | 214 ft | 4 kts | 268° |
| 2026-05-07 17:40 | 51.15305 | -0.17403 | 218 ft | 1 kts | 257° |
| 2026-05-07 17:40 | 51.15306 | -0.17395 | 217 ft | 0 kts | 257° |
| 2026-05-07 17:44 | 51.15303 | -0.17415 | 211 ft | 5 kts | 257° |
| 2026-05-07 17:44 | 51.15292 | -0.17515 | 207 ft | 11 kts | 260° |
| 2026-05-07 17:44 | 51.15273 | -0.17651 | 217 ft | 14 kts | 257° |
| 2026-05-07 17:44 | 51.15250 | -0.17811 | 207 ft | 16 kts | 258° |
| 2026-05-07 17:45 | 51.15226 | -0.17998 | 214 ft | 18 kts | 257° |
| 2026-05-07 17:45 | 51.15197 | -0.18207 | 212 ft | 20 kts | 257° |
| 2026-05-07 17:45 | 51.15171 | -0.18439 | 215 ft | 21 kts | 258° |
| 2026-05-07 17:45 | 51.15138 | -0.18676 | 210 ft | 23 kts | 257° |
| 2026-05-07 17:46 | 51.15102 | -0.18922 | 210 ft | 22 kts | 258° |
| 2026-05-07 17:46 | 51.15069 | -0.19166 | 209 ft | 23 kts | 257° |
| 2026-05-07 17:46 | 51.15035 | -0.19409 | 208 ft | 22 kts | 258° |
| 2026-05-07 17:46 | 51.15004 | -0.19640 | 212 ft | 21 kts | 257° |
| 2026-05-07 17:47 | 51.14972 | -0.19876 | 210 ft | 23 kts | 259° |
| 2026-05-07 17:47 | 51.14939 | -0.20127 | 215 ft | 19 kts | 257° |
| 2026-05-07 17:47 | 51.14912 | -0.20311 | 216 ft | 18 kts | 257° |
| 2026-05-07 17:47 | 51.14883 | -0.20518 | 215 ft | 20 kts | 257° |
| 2026-05-07 17:48 | 51.14852 | -0.20749 | 212 ft | 22 kts | 258° |
| 2026-05-07 17:48 | 51.14819 | -0.20984 | 211 ft | 21 kts | 257° |
| 2026-05-07 17:48 | 51.14784 | -0.21189 | 212 ft | 20 kts | 251° |
| 2026-05-07 17:48 | 51.14744 | -0.21380 | 209 ft | 15 kts | 221° |
| 2026-05-07 17:49 | 51.14651 | -0.21349 | 214 ft | 14 kts | 151° |
| 2026-05-07 17:49 | 51.14557 | -0.21288 | 209 ft | 16 kts | 145° |
| 2026-05-07 17:49 | 51.14524 | -0.21140 | 206 ft | 0 kts | 78° |
| 2026-05-07 17:50 | 51.14525 | -0.21131 | 209 ft | 10 kts | 78° |
| 2026-05-07 17:51 | 51.14587 | -0.20683 | 216 ft | 73 kts | 77° |
| 2026-05-07 17:51 | 51.14737 | -0.19578 | 210 ft | 129 kts | 77° |
| 2026-05-07 17:51 | 51.14954 | -0.17969 | 298 ft | 162 kts | 79° |
| 2026-05-07 17:51 | 51.15192 | -0.16171 | 801 ft | 169 kts | 82° |
| 2026-05-07 17:52 | 51.15485 | -0.14313 | 1405 ft | 173 kts | 72° |
| 2026-05-07 17:52 | 51.15928 | -0.12541 | 2009 ft | 176 kts | 69° |
| 2026-05-07 17:52 | 51.16252 | -0.10767 | 2592 ft | 178 kts | 78° |
| 2026-05-07 17:52 | 51.16529 | -0.08834 | 3229 ft | 179 kts | 77° |
| 2026-05-07 17:53 | 51.16802 | -0.06890 | 3856 ft | 181 kts | 78° |
| 2026-05-07 17:53 | 51.17097 | -0.04934 | 4481 ft | 182 kts | 74° |
| 2026-05-07 17:53 | 51.17425 | -0.02982 | 5099 ft | 183 kts | 76° |
| 2026-05-07 17:53 | 51.17659 | -0.00995 | 5700 ft | 182 kts | 85° |
| 2026-05-07 17:54 | 51.17745 | 0.01069 | 5968 ft | 200 kts | 86° |
| 2026-05-07 17:54 | 51.17839 | 0.03426 | 6057 ft | 223 kts | 86° |
| 2026-05-07 17:54 | 51.17939 | 0.06043 | 6245 ft | 254 kts | 86° |
| 2026-05-07 17:54 | 51.18016 | 0.08951 | 7068 ft | 259 kts | 89° |
| 2026-05-07 17:55 | 51.18053 | 0.11849 | 8021 ft | 268 kts | 91° |
| 2026-05-07 17:55 | 51.18058 | 0.14882 | 8911 ft | 276 kts | 91° |
| 2026-05-07 17:55 | 51.18042 | 0.17841 | 9870 ft | 281 kts | 92° |
| 2026-05-07 17:55 | 51.18009 | 0.21004 | 10637 ft | 292 kts | 93° |
| 2026-05-07 17:56 | 51.17968 | 0.24255 | 11252 ft | 294 kts | 93° |
| 2026-05-07 17:56 | 51.17922 | 0.27531 | 11873 ft | 297 kts | 93° |
| 2026-05-07 17:56 | 51.17874 | 0.30830 | 12517 ft | 299 kts | 93° |
| 2026-05-07 17:56 | 51.17824 | 0.34156 | 13167 ft | 302 kts | 93° |
| 2026-05-07 17:57 | 51.17773 | 0.37517 | 13826 ft | 304 kts | 93° |
| 2026-05-07 17:57 | 51.17738 | 0.39759 | 14224 ft | 307 kts | 93° |
| 2026-05-07 17:57 | 51.17668 | 0.44336 | 15042 ft | 312 kts | 93° |
| 2026-05-07 17:57 | 51.17614 | 0.47809 | 15663 ft | 315 kts | 92° |
| 2026-05-07 17:58 | 51.17560 | 0.51318 | 16304 ft | 318 kts | 92° |
| 2026-05-07 17:58 | 51.17506 | 0.54866 | 16959 ft | 322 kts | 92° |
| 2026-05-07 17:58 | 51.17452 | 0.58454 | 17634 ft | 326 kts | 92° |
| 2026-05-07 17:58 | 51.17395 | 0.62128 | 17862 ft | 336 kts | 92° |
| 2026-05-07 17:59 | 51.17338 | 0.65814 | 17884 ft | 331 kts | 92° |
| 2026-05-07 17:59 | 51.17284 | 0.69436 | 18342 ft | 328 kts | 92° |
| 2026-05-07 17:59 | 51.17228 | 0.73107 | 18841 ft | 335 kts | 92° |
| 2026-05-07 17:59 | 51.17170 | 0.76827 | 19353 ft | 337 kts | 92° |
| 2026-05-07 18:00 | 51.17113 | 0.80580 | 19868 ft | 340 kts | 92° |
| 2026-05-07 18:00 | 51.17055 | 0.84362 | 20396 ft | 343 kts | 92° |
| 2026-05-07 18:00 | 51.16997 | 0.88181 | 20924 ft | 346 kts | 92° |
| 2026-05-07 18:00 | 51.16937 | 0.92028 | 21465 ft | 349 kts | 92° |
| 2026-05-07 18:01 | 51.16877 | 0.95892 | 22039 ft | 351 kts | 92° |
| 2026-05-07 18:01 | 51.16817 | 0.99808 | 22578 ft | 354 kts | 92° |
| 2026-05-07 18:01 | 51.16757 | 1.03746 | 23124 ft | 357 kts | 92° |
| 2026-05-07 18:01 | 51.16696 | 1.07711 | 23673 ft | 360 kts | 92° |
| 2026-05-07 18:02 | 51.16573 | 1.15735 | 24616 ft | 365 kts | 92° |
| 2026-05-07 18:02 | 51.16511 | 1.19790 | 25100 ft | 367 kts | 92° |
| 2026-05-07 18:02 | 51.16449 | 1.23812 | 25586 ft | 369 kts | 92° |
| 2026-05-07 18:03 | 51.16386 | 1.27914 | 26086 ft | 371 kts | 92° |
| 2026-05-07 18:03 | 51.16323 | 1.32027 | 26590 ft | 372 kts | 92° |
| 2026-05-07 18:03 | 51.16260 | 1.36143 | 27104 ft | 373 kts | 92° |
| 2026-05-07 18:03 | 51.16196 | 1.40270 | 27621 ft | 373 kts | 92° |
| 2026-05-07 18:04 | 51.16133 | 1.44403 | 28149 ft | 372 kts | 92° |
| 2026-05-07 18:04 | 51.16070 | 1.48521 | 28683 ft | 371 kts | 92° |
| 2026-05-07 18:04 | 51.15955 | 1.52612 | 29221 ft | 369 kts | 97° |
| 2026-05-07 18:04 | 51.15696 | 1.56654 | 29768 ft | 366 kts | 97° |
| 2026-05-07 18:05 | 51.15434 | 1.60668 | 30284 ft | 363 kts | 97° |
| 2026-05-07 18:05 | 51.15175 | 1.64648 | 30750 ft | 359 kts | 97° |
| 2026-05-07 18:05 | 51.14920 | 1.68574 | 31219 ft | 354 kts | 98° |
| 2026-05-07 18:05 | 51.14637 | 1.72445 | 31689 ft | 349 kts | 98° |
| 2026-05-07 18:06 | 51.14351 | 1.76297 | 31931 ft | 351 kts | 98° |
| 2026-05-07 18:06 | 51.14065 | 1.80166 | 32176 ft | 353 kts | 98° |
| 2026-05-07 18:06 | 51.13777 | 1.84049 | 32436 ft | 354 kts | 98° |
| 2026-05-07 18:06 | 51.13489 | 1.87946 | 32715 ft | 354 kts | 98° |
| 2026-05-07 18:07 | 51.13299 | 1.90525 | 32884 ft | 355 kts | 98° |
| 2026-05-07 18:07 | 51.13011 | 1.94427 | 33102 ft | 357 kts | 98° |
| 2026-05-07 18:07 | 51.12690 | 1.98408 | 33074 ft | 366 kts | 102° |
| 2026-05-07 18:07 | 51.12036 | 2.02275 | 33076 ft | 356 kts | 113° |
| 2026-05-07 18:08 | 51.10989 | 2.05772 | 33081 ft | 347 kts | 121° |
| 2026-05-07 18:08 | 51.08850 | 2.12765 | 33073 ft | 354 kts | 118° |
| 2026-05-07 18:09 | 51.06800 | 2.19844 | 33077 ft | 352 kts | 117° |
| 2026-05-07 18:09 | 51.04761 | 2.26932 | 33077 ft | 352 kts | 117° |
| 2026-05-07 18:10 | 51.02718 | 2.34008 | 33066 ft | 352 kts | 117° |
| 2026-05-07 18:10 | 51.00680 | 2.41087 | 33065 ft | 352 kts | 117° |
| 2026-05-07 18:11 | 50.98654 | 2.48161 | 33063 ft | 352 kts | 117° |
| 2026-05-07 18:11 | 50.96616 | 2.55234 | 33066 ft | 352 kts | 117° |
| 2026-05-07 18:12 | 50.94553 | 2.62280 | 33072 ft | 352 kts | 117° |
| 2026-05-07 18:12 | 50.92494 | 2.69318 | 33059 ft | 352 kts | 117° |
| 2026-05-07 18:13 | 50.90447 | 2.76311 | 33061 ft | 352 kts | 117° |
| 2026-05-07 18:13 | 50.88388 | 2.83353 | 33064 ft | 352 kts | 117° |
| 2026-05-07 18:14 | 50.86332 | 2.90354 | 33061 ft | 351 kts | 117° |
| 2026-05-07 18:14 | 50.84271 | 2.97356 | 33060 ft | 351 kts | 117° |
| 2026-05-07 18:15 | 50.82168 | 3.04480 | 33072 ft | 366 kts | 117° |
| 2026-05-07 18:15 | 50.79950 | 3.11949 | 33085 ft | 384 kts | 117° |
| 2026-05-07 18:16 | 50.77627 | 3.19791 | 33071 ft | 402 kts | 117° |
| 2026-05-07 18:16 | 50.75267 | 3.27748 | 33056 ft | 397 kts | 117° |
| 2026-05-07 18:17 | 50.73485 | 3.33722 | 33059 ft | 398 kts | 117° |
| 2026-05-07 18:17 | 50.71129 | 3.41626 | 33054 ft | 398 kts | 117° |
| 2026-05-07 18:18 | 50.68740 | 3.49494 | 33051 ft | 398 kts | 117° |
| 2026-05-07 18:18 | 50.66354 | 3.57357 | 33059 ft | 398 kts | 117° |
| 2026-05-07 18:19 | 50.64777 | 3.62549 | 33056 ft | 398 kts | 117° |
| 2026-05-07 18:19 | 50.63988 | 3.65148 | 33062 ft | 397 kts | 117° |
| 2026-05-07 18:20 | 50.63232 | 3.67640 | 33052 ft | 397 kts | 117° |
| 2026-05-07 18:21 | 50.60830 | 3.75526 | 33068 ft | 405 kts | 118° |
| 2026-05-07 18:21 | 50.58312 | 3.83679 | 33071 ft | 424 kts | 118° |
| 2026-05-07 18:22 | 50.55722 | 3.92164 | 33082 ft | 442 kts | 117° |
| 2026-05-07 18:22 | 50.53004 | 4.01055 | 33077 ft | 459 kts | 117° |
| 2026-05-07 18:23 | 50.50241 | 4.10083 | 33075 ft | 457 kts | 117° |
| 2026-05-07 18:23 | 50.47491 | 4.19071 | 33078 ft | 457 kts | 117° |
| 2026-05-07 18:24 | 50.44707 | 4.28032 | 33086 ft | 457 kts | 118° |
| 2026-05-07 18:24 | 50.41895 | 4.36967 | 33080 ft | 457 kts | 118° |
| 2026-05-07 18:25 | 50.39087 | 4.45892 | 33079 ft | 456 kts | 118° |
| 2026-05-07 18:25 | 50.36261 | 4.54869 | 33078 ft | 457 kts | 118° |
| 2026-05-07 18:26 | 50.33470 | 4.63729 | 33080 ft | 456 kts | 118° |
| 2026-05-07 18:26 | 50.30653 | 4.72614 | 33067 ft | 457 kts | 118° |
| 2026-05-07 18:27 | 50.27824 | 4.81508 | 33066 ft | 456 kts | 118° |
| 2026-05-07 18:27 | 50.24999 | 4.90382 | 33065 ft | 456 kts | 118° |
| 2026-05-07 18:28 | 50.22171 | 4.99262 | 33065 ft | 456 kts | 118° |
| 2026-05-07 18:28 | 50.19309 | 5.08091 | 33058 ft | 456 kts | 118° |
| 2026-05-07 18:29 | 50.16422 | 5.16901 | 33059 ft | 456 kts | 118° |
| 2026-05-07 18:29 | 50.13538 | 5.25704 | 33061 ft | 456 kts | 118° |
| 2026-05-07 18:30 | 50.10657 | 5.34504 | 33063 ft | 456 kts | 118° |
| 2026-05-07 18:30 | 50.07780 | 5.43298 | 33064 ft | 456 kts | 118° |
| 2026-05-07 18:31 | 50.04905 | 5.52086 | 33063 ft | 455 kts | 118° |
| 2026-05-07 18:31 | 50.02033 | 5.60869 | 33063 ft | 455 kts | 118° |
| 2026-05-07 18:32 | 49.99163 | 5.69650 | 33063 ft | 455 kts | 118° |
| 2026-05-07 18:32 | 49.96294 | 5.78426 | 33062 ft | 455 kts | 118° |
| 2026-05-07 18:33 | 49.93430 | 5.87194 | 33061 ft | 455 kts | 118° |
| 2026-05-07 18:33 | 49.90553 | 5.95941 | 33050 ft | 455 kts | 118° |
| 2026-05-07 18:34 | 49.87669 | 6.04675 | 33052 ft | 455 kts | 118° |
| 2026-05-07 18:34 | 49.84785 | 6.13408 | 33051 ft | 455 kts | 118° |
| 2026-05-07 18:35 | 49.81907 | 6.22127 | 33048 ft | 455 kts | 118° |
| 2026-05-07 18:35 | 49.79010 | 6.30844 | 33053 ft | 455 kts | 118° |
| 2026-05-07 18:36 | 49.76103 | 6.39539 | 33046 ft | 455 kts | 118° |
| 2026-05-07 18:36 | 49.73190 | 6.48212 | 33048 ft | 455 kts | 118° |
| 2026-05-07 18:37 | 49.70275 | 6.56892 | 33049 ft | 455 kts | 118° |
| 2026-05-07 18:37 | 49.67365 | 6.65560 | 33051 ft | 455 kts | 118° |
| 2026-05-07 18:38 | 49.64455 | 6.74227 | 33055 ft | 454 kts | 118° |
| 2026-05-07 18:38 | 49.61525 | 6.82851 | 33053 ft | 454 kts | 118° |
| 2026-05-07 18:39 | 49.58589 | 6.91461 | 33049 ft | 454 kts | 118° |
| 2026-05-07 18:39 | 49.55653 | 7.00069 | 33052 ft | 454 kts | 118° |
| 2026-05-07 18:40 | 49.52717 | 7.08676 | 33037 ft | 454 kts | 118° |
| 2026-05-07 18:40 | 49.49716 | 7.17240 | 33069 ft | 455 kts | 120° |
| 2026-05-07 18:41 | 49.46679 | 7.25793 | 33066 ft | 455 kts | 120° |
| 2026-05-07 18:41 | 49.43626 | 7.34312 | 33070 ft | 455 kts | 120° |
| 2026-05-07 18:42 | 49.40569 | 7.42837 | 33068 ft | 455 kts | 120° |
| 2026-05-07 18:42 | 49.37515 | 7.51353 | 33046 ft | 455 kts | 120° |
| 2026-05-07 18:43 | 49.34460 | 7.59868 | 33050 ft | 456 kts | 120° |
| 2026-05-07 18:43 | 49.31389 | 7.68408 | 33052 ft | 457 kts | 120° |
| 2026-05-07 18:44 | 49.28140 | 7.76754 | 33042 ft | 456 kts | 129° |
| 2026-05-07 18:44 | 49.23825 | 7.83823 | 33058 ft | 455 kts | 138° |
| 2026-05-07 18:45 | 49.19248 | 7.90494 | 33068 ft | 455 kts | 138° |
| 2026-05-07 18:45 | 49.14671 | 7.97159 | 33064 ft | 454 kts | 138° |
| 2026-05-07 18:46 | 49.10058 | 8.03869 | 33067 ft | 459 kts | 138° |
| 2026-05-07 18:46 | 49.05468 | 8.10543 | 33065 ft | 458 kts | 138° |
| 2026-05-07 18:47 | 49.00856 | 8.17239 | 33051 ft | 458 kts | 138° |
| 2026-05-07 18:47 | 48.96215 | 8.23952 | 33051 ft | 458 kts | 138° |
| 2026-05-07 18:48 | 48.91584 | 8.30603 | 33052 ft | 457 kts | 139° |
| 2026-05-07 18:48 | 48.86973 | 8.37190 | 33051 ft | 458 kts | 139° |
| 2026-05-07 18:49 | 48.82309 | 8.43848 | 33058 ft | 458 kts | 139° |
| 2026-05-07 18:49 | 48.77672 | 8.50462 | 33057 ft | 457 kts | 139° |
| 2026-05-07 18:50 | 48.73810 | 8.55934 | 33068 ft | 458 kts | 140° |
| 2026-05-07 18:50 | 48.68357 | 8.63497 | 33067 ft | 457 kts | 140° |
| 2026-05-07 18:51 | 48.63667 | 8.69991 | 33070 ft | 457 kts | 140° |
| 2026-05-07 18:51 | 48.59706 | 8.75455 | 33066 ft | 462 kts | 140° |
| 2026-05-07 18:52 | 48.54970 | 8.81977 | 33068 ft | 460 kts | 140° |
| 2026-05-07 18:52 | 48.50237 | 8.88491 | 33070 ft | 461 kts | 140° |
| 2026-05-07 18:53 | 48.45532 | 8.94955 | 33067 ft | 461 kts | 140° |
| 2026-05-07 18:53 | 48.40796 | 9.01451 | 33066 ft | 460 kts | 140° |
| 2026-05-07 18:54 | 48.36059 | 9.07935 | 33073 ft | 461 kts | 140° |
| 2026-05-07 18:54 | 48.31311 | 9.14413 | 33073 ft | 461 kts | 140° |
| 2026-05-07 18:55 | 48.26565 | 9.20898 | 33063 ft | 462 kts | 140° |
| 2026-05-07 18:55 | 48.21816 | 9.27427 | 33062 ft | 463 kts | 140° |
| 2026-05-07 18:56 | 48.17075 | 9.33938 | 32980 ft | 464 kts | 140° |
| 2026-05-07 18:56 | 48.14696 | 9.37193 | 32698 ft | 461 kts | 140° |
| 2026-05-07 18:56 | 48.12331 | 9.40420 | 32429 ft | 457 kts | 140° |
| 2026-05-07 18:56 | 48.09992 | 9.43608 | 32170 ft | 454 kts | 140° |
| 2026-05-07 18:57 | 48.07652 | 9.46784 | 31909 ft | 453 kts | 140° |
| 2026-05-07 18:57 | 48.05326 | 9.49936 | 31650 ft | 451 kts | 140° |
| 2026-05-07 18:57 | 48.03007 | 9.53076 | 31380 ft | 450 kts | 140° |
| 2026-05-07 18:57 | 48.00661 | 9.56162 | 31128 ft | 447 kts | 143° |
| 2026-05-07 18:58 | 47.98229 | 9.59044 | 30878 ft | 446 kts | 143° |
| 2026-05-07 18:58 | 47.95744 | 9.61763 | 30639 ft | 442 kts | 148° |
| 2026-05-07 18:58 | 47.93202 | 9.64346 | 30395 ft | 441 kts | 148° |
| 2026-05-07 18:58 | 47.90676 | 9.66915 | 30154 ft | 439 kts | 148° |
| 2026-05-07 18:59 | 47.88169 | 9.69495 | 29864 ft | 437 kts | 147° |
| 2026-05-07 18:59 | 47.85691 | 9.72097 | 29573 ft | 434 kts | 147° |
| 2026-05-07 18:59 | 47.83222 | 9.74664 | 29286 ft | 432 kts | 148° |
| 2026-05-07 18:59 | 47.80797 | 9.77158 | 28989 ft | 428 kts | 148° |
| 2026-05-07 19:00 | 47.78342 | 9.79683 | 28700 ft | 429 kts | 148° |
| 2026-05-07 19:00 | 47.75897 | 9.82196 | 28425 ft | 426 kts | 148° |
| 2026-05-07 19:00 | 47.73467 | 9.84697 | 28150 ft | 424 kts | 148° |
| 2026-05-07 19:00 | 47.71066 | 9.87221 | 27878 ft | 422 kts | 147° |
| 2026-05-07 19:01 | 47.68668 | 9.89716 | 27612 ft | 419 kts | 148° |
| 2026-05-07 19:01 | 47.66275 | 9.92162 | 27347 ft | 417 kts | 148° |
| 2026-05-07 19:01 | 47.63888 | 9.94602 | 27075 ft | 415 kts | 148° |
| 2026-05-07 19:01 | 47.61531 | 9.97047 | 26808 ft | 413 kts | 147° |
| 2026-05-07 19:02 | 47.59182 | 9.99499 | 26577 ft | 411 kts | 148° |
| 2026-05-07 19:02 | 47.56837 | 10.01893 | 26301 ft | 410 kts | 148° |
| 2026-05-07 19:02 | 47.54494 | 10.04292 | 26041 ft | 409 kts | 148° |
| 2026-05-07 19:02 | 47.52159 | 10.06679 | 25798 ft | 406 kts | 148° |
| 2026-05-07 19:03 | 47.49843 | 10.09047 | 25545 ft | 404 kts | 148° |
| 2026-05-07 19:03 | 47.47534 | 10.11400 | 25298 ft | 402 kts | 148° |
| 2026-05-07 19:03 | 47.45236 | 10.13737 | 25054 ft | 400 kts | 148° |
| 2026-05-07 19:03 | 47.42945 | 10.16061 | 24812 ft | 398 kts | 148° |
| 2026-05-07 19:04 | 47.40668 | 10.18379 | 24569 ft | 396 kts | 148° |
| 2026-05-07 19:04 | 47.38419 | 10.20709 | 24331 ft | 395 kts | 148° |
| 2026-05-07 19:04 | 47.36161 | 10.23000 | 24096 ft | 393 kts | 148° |
| 2026-05-07 19:04 | 47.33912 | 10.25267 | 23856 ft | 391 kts | 148° |
| 2026-05-07 19:05 | 47.31678 | 10.27537 | 23609 ft | 389 kts | 146° |
| 2026-05-07 19:05 | 47.29735 | 10.30297 | 23268 ft | 391 kts | 126° |
| 2026-05-07 19:05 | 47.28593 | 10.33928 | 22971 ft | 391 kts | 107° |
| 2026-05-07 19:05 | 47.28118 | 10.37858 | 22685 ft | 391 kts | 92° |
| 2026-05-07 19:06 | 47.27981 | 10.41854 | 22443 ft | 391 kts | 96° |
| 2026-05-07 19:06 | 47.27289 | 10.49770 | 21948 ft | 388 kts | 99° |
| 2026-05-07 19:06 | 47.26899 | 10.53690 | 21675 ft | 387 kts | 99° |
| 2026-05-07 19:07 | 47.26655 | 10.57613 | 21381 ft | 384 kts | 87° |
| 2026-05-07 19:07 | 47.27313 | 10.61384 | 21075 ft | 381 kts | 62° |
| 2026-05-07 19:07 | 47.28914 | 10.64419 | 20789 ft | 376 kts | 38° |
| 2026-05-07 19:07 | 47.31175 | 10.66223 | 20525 ft | 369 kts | 13° |
| 2026-05-07 19:08 | 47.33691 | 10.66499 | 20265 ft | 361 kts | 349° |
| 2026-05-07 19:08 | 47.35989 | 10.65230 | 20047 ft | 350 kts | 323° |
| 2026-05-07 19:08 | 47.37633 | 10.62647 | 20053 ft | 347 kts | 298° |
| 2026-05-07 19:08 | 47.38361 | 10.59293 | 20064 ft | 345 kts | 276° |
| 2026-05-07 19:09 | 47.38448 | 10.55759 | 20065 ft | 345 kts | 269° |
| 2026-05-07 19:09 | 47.38418 | 10.52223 | 20064 ft | 346 kts | 271° |
| 2026-05-07 19:09 | 47.38570 | 10.48701 | 20058 ft | 345 kts | 276° |
| 2026-05-07 19:09 | 47.38922 | 10.45204 | 20056 ft | 345 kts | 281° |
| 2026-05-07 19:10 | 47.39462 | 10.41749 | 20058 ft | 348 kts | 285° |
| 2026-05-07 19:10 | 47.40179 | 10.38341 | 20065 ft | 347 kts | 289° |
| 2026-05-07 19:10 | 47.41029 | 10.35060 | 20061 ft | 346 kts | 292° |
| 2026-05-07 19:10 | 47.42015 | 10.31803 | 20064 ft | 347 kts | 295° |
| 2026-05-07 19:11 | 47.43105 | 10.28605 | 20061 ft | 348 kts | 297° |
| 2026-05-07 19:11 | 47.44281 | 10.25476 | 20055 ft | 348 kts | 298° |
| 2026-05-07 19:11 | 47.45539 | 10.22434 | 20059 ft | 349 kts | 307° |
| 2026-05-07 19:11 | 47.47090 | 10.19672 | 20049 ft | 350 kts | 304° |
| 2026-05-07 19:12 | 47.48052 | 10.16431 | 20032 ft | 346 kts | 279° |
| 2026-05-07 19:12 | 47.48013 | 10.12884 | 19713 ft | 346 kts | 256° |
| 2026-05-07 19:12 | 47.46965 | 10.09714 | 19228 ft | 346 kts | 232° |
| 2026-05-07 19:12 | 47.45086 | 10.07519 | 18742 ft | 349 kts | 207° |
| 2026-05-07 19:13 | 47.42726 | 10.06722 | 18253 ft | 353 kts | 182° |
| 2026-05-07 19:13 | 47.40333 | 10.07489 | 17711 ft | 356 kts | 157° |
| 2026-05-07 19:13 | 47.38367 | 10.09683 | 17161 ft | 355 kts | 132° |
| 2026-05-07 19:13 | 47.37206 | 10.12741 | 16609 ft | 335 kts | 109° |
| 2026-05-07 19:14 | 47.36602 | 10.15953 | 16085 ft | 315 kts | 108° |
| 2026-05-07 19:14 | 47.35969 | 10.18976 | 15562 ft | 302 kts | 109° |
| 2026-05-07 19:14 | 47.35355 | 10.21878 | 15038 ft | 292 kts | 109° |
| 2026-05-07 19:14 | 47.34768 | 10.24690 | 14517 ft | 283 kts | 109° |
| 2026-05-07 19:15 | 47.34197 | 10.27463 | 14030 ft | 285 kts | 109° |
| 2026-05-07 19:15 | 47.33466 | 10.30195 | 13531 ft | 286 kts | 119° |
| 2026-05-07 19:15 | 47.32491 | 10.32789 | 13081 ft | 286 kts | 120° |
| 2026-05-07 19:15 | 47.31902 | 10.35497 | 13026 ft | 272 kts | 94° |
| 2026-05-07 19:16 | 47.32187 | 10.38167 | 12898 ft | 268 kts | 75° |
| 2026-05-07 19:16 | 47.32389 | 10.40892 | 12657 ft | 268 kts | 93° |
| 2026-05-07 19:16 | 47.32203 | 10.43639 | 12172 ft | 274 kts | 101° |
| 2026-05-07 19:16 | 47.32027 | 10.46510 | 11438 ft | 286 kts | 92° |
| 2026-05-07 19:17 | 47.31808 | 10.49314 | 11599 ft | 259 kts | 109° |
| 2026-05-07 19:17 | 47.31025 | 10.51548 | 11585 ft | 243 kts | 126° |
| 2026-05-07 19:17 | 47.30216 | 10.53727 | 11342 ft | 240 kts | 112° |
| 2026-05-07 19:17 | 47.29930 | 10.56072 | 11252 ft | 230 kts | 82° |
| 2026-05-07 19:18 | 47.30041 | 10.58409 | 10969 ft | 227 kts | 98° |
| 2026-05-07 19:18 | 47.29737 | 10.60625 | 10995 ft | 215 kts | 108° |
| 2026-05-07 19:18 | 47.29308 | 10.62759 | 11114 ft | 218 kts | 110° |
| 2026-05-07 19:18 | 47.28817 | 10.64877 | 11350 ft | 222 kts | 108° |
| 2026-05-07 19:19 | 47.28452 | 10.66957 | 11281 ft | 198 kts | 102° |
| 2026-05-07 19:19 | 47.28293 | 10.68916 | 10905 ft | 188 kts | 95° |
| 2026-05-07 19:19 | 47.28338 | 10.70721 | 10645 ft | 167 kts | 79° |
| 2026-05-07 19:19 | 47.28629 | 10.72322 | 10434 ft | 161 kts | 75° |
| 2026-05-07 19:20 | 47.28894 | 10.73916 | 10195 ft | 157 kts | 79° |
| 2026-05-07 19:20 | 47.29105 | 10.75503 | 9968 ft | 158 kts | 80° |
| 2026-05-07 19:20 | 47.29316 | 10.77099 | 9702 ft | 157 kts | 81° |
| 2026-05-07 19:20 | 47.29514 | 10.78834 | 9487 ft | 189 kts | 79° |
| 2026-05-07 19:21 | 47.29860 | 10.80797 | 9205 ft | 193 kts | 79° |
| 2026-05-07 19:21 | 47.30020 | 10.82740 | 9008 ft | 191 kts | 87° |
| 2026-05-07 19:21 | 47.30066 | 10.84719 | 8796 ft | 190 kts | 88° |
| 2026-05-07 19:21 | 47.30122 | 10.86669 | 8720 ft | 192 kts | 89° |
| 2026-05-07 19:22 | 47.30122 | 10.88621 | 8722 ft | 189 kts | 91° |
| 2026-05-07 19:22 | 47.30152 | 10.90569 | 8793 ft | 189 kts | 89° |
| 2026-05-07 19:22 | 47.30135 | 10.92520 | 8839 ft | 195 kts | 92° |
| 2026-05-07 19:22 | 47.30122 | 10.94498 | 8688 ft | 191 kts | 90° |
| 2026-05-07 19:23 | 47.30175 | 10.96459 | 8594 ft | 191 kts | 86° |
| 2026-05-07 19:23 | 47.30317 | 10.98403 | 8374 ft | 192 kts | 84° |
| 2026-05-07 19:23 | 47.30425 | 11.00333 | 8118 ft | 190 kts | 88° |
| 2026-05-07 19:23 | 47.30451 | 11.02228 | 7793 ft | 182 kts | 92° |
| 2026-05-07 19:24 | 47.30364 | 11.04106 | 7552 ft | 184 kts | 95° |
| 2026-05-07 19:24 | 47.30179 | 11.05979 | 7296 ft | 180 kts | 106° |
| 2026-05-07 19:24 | 47.29782 | 11.07705 | 6985 ft | 179 kts | 105° |
| 2026-05-07 19:24 | 47.29467 | 11.09471 | 6684 ft | 168 kts | 106° |
| 2026-05-07 19:25 | 47.29147 | 11.10992 | 6418 ft | 150 kts | 109° |
| 2026-05-07 19:25 | 47.28809 | 11.12424 | 6070 ft | 147 kts | 110° |
| 2026-05-07 19:25 | 47.28490 | 11.13841 | 5706 ft | 144 kts | 108° |
| 2026-05-07 19:25 | 47.28197 | 11.15214 | 5385 ft | 138 kts | 107° |
| 2026-05-07 19:26 | 47.27904 | 11.16558 | 5009 ft | 134 kts | 108° |
| 2026-05-07 19:26 | 47.27610 | 11.17842 | 4590 ft | 134 kts | 109° |
| 2026-05-07 19:26 | 47.27314 | 11.19133 | 4200 ft | 131 kts | 108° |
| 2026-05-07 19:26 | 47.27042 | 11.20396 | 3868 ft | 130 kts | 106° |
| 2026-05-07 19:27 | 47.26768 | 11.21689 | 3614 ft | 133 kts | 105° |
| 2026-05-07 19:27 | 47.26532 | 11.22964 | 3421 ft | 128 kts | 103° |
| 2026-05-07 19:27 | 47.26317 | 11.24273 | 3255 ft | 132 kts | 104° |
| 2026-05-07 19:27 | 47.26109 | 11.25562 | 3059 ft | 127 kts | 102° |
| 2026-05-07 19:28 | 47.25935 | 11.26835 | 2799 ft | 126 kts | 100° |
| 2026-05-07 19:28 | 47.25772 | 11.28086 | 2562 ft | 123 kts | 99° |
| 2026-05-07 19:28 | 47.25665 | 11.29358 | 2493 ft | 123 kts | 93° |
| 2026-05-07 19:28 | 47.25657 | 11.30648 | 2333 ft | 135 kts | 87° |
| 2026-05-07 19:29 | 47.25754 | 11.31966 | 2090 ft | 124 kts | 81° |
| 2026-05-07 19:29 | 47.25889 | 11.33195 | 1939 ft | 118 kts | 81° |
| 2026-05-07 19:29 | 47.25993 | 11.34133 | 1905 ft | 69 kts | 82° |
| 2026-05-07 19:29 | 47.26063 | 11.34774 | 1910 ft | 55 kts | 82° |
| 2026-05-07 19:30 | 47.26104 | 11.35154 | 1910 ft | 22 kts | 81° |
| 2026-05-07 19:30 | 47.26042 | 11.35263 | 1907 ft | 16 kts | 172° |
| 2026-05-07 19:30 | 47.25965 | 11.35281 | 1896 ft | 10 kts | 171° |
| 2026-05-07 19:30 | 47.25904 | 11.35259 | 1905 ft | 9 kts | 242° |
| 2026-05-07 19:31 | 47.25896 | 11.35216 | 1910 ft | 7 kts | 259° |
| 2026-05-07 19:31 | 47.25871 | 11.35165 | 1902 ft | 6 kts | 190° |
| 2026-05-07 19:31 | 47.25837 | 11.35167 | 1909 ft | 5 kts | 170° |
| 2026-05-07 19:31 | 47.25835 | 11.35167 | 1910 ft | 0 kts | 169° |